Time;durP1;ratioP1;P1;durP2;ratioP2;P2;SDS_P1;SDS_P2;PMS_P1;PMS_P2;Temp;Humidity;BMP_temperature;BMP_pressure;BME280_temperature;BME280_humidity;BME280_pressure;Samples;Min_cycle;Max_cycle;Signal;HPM_P1;HPM_P2
2023/06/11 00:01:16;;;;;;;6.60;5.90;;;18.70;99.90;;;;;;5068592;28;20136;-81
2023/06/11 00:03:42;;;;;;;7.43;5.78;;;18.70;99.90;;;;;;5068751;28;20037;-81
2023/06/11 00:06:08;;;;;;;6.88;6.15;;;18.70;99.90;;;;;;5051468;28;20424;-80
2023/06/11 00:08:34;;;;;;;6.32;5.68;;;18.70;99.90;;;;;;5069570;28;20048;-81
2023/06/11 00:11:00;;;;;;;8.43;6.15;;;18.70;99.90;;;;;;5069522;28;20040;-82
2023/06/11 00:13:28;;;;;;;7.57;6.00;;;18.70;99.90;;;;;;5068514;28;20048;-82
2023/06/11 00:15:54;;;;;;;9.73;5.93;;;18.70;99.90;;;;;;5067996;28;20055;-82
2023/06/11 00:18:20;;;;;;;10.07;6.55;;;18.70;99.90;;;;;;5069446;28;20047;-80
2023/06/11 00:20:47;;;;;;;7.22;6.45;;;19.10;99.90;;;;;;5068017;28;20048;-81
2023/06/11 00:23:13;;;;;;;7.55;6.80;;;18.80;99.90;;;;;;5068523;28;20057;-81
2023/06/11 00:25:39;;;;;;;8.20;7.40;;;18.80;99.90;;;;;;5068154;28;20040;-81
2023/06/11 00:28:06;;;;;;;8.02;7.05;;;19.10;99.90;;;;;;5067725;28;20424;-81
2023/06/11 00:30:32;;;;;;;8.40;7.60;;;18.90;99.90;;;;;;5068027;28;20068;-81
2023/06/11 00:32:57;;;;;;;8.50;7.57;;;18.90;99.90;;;;;;5069257;28;20040;-81
2023/06/11 00:35:23;;;;;;;8.35;7.53;;;19.10;99.90;;;;;;5068982;28;20454;-81
2023/06/11 00:37:49;;;;;;;8.20;7.05;;;19.40;99.90;;;;;;5068370;28;20044;-82
2023/06/11 00:40:15;;;;;;;9.02;7.57;;;19.10;99.90;;;;;;5067445;28;20080;-82
2023/06/11 00:42:41;;;;;;;9.05;7.72;;;19.10;99.90;;;;;;5067473;28;20460;-82
2023/06/11 00:45:08;;;;;;;7.28;6.60;;;19.10;99.90;;;;;;5068147;28;20052;-81
2023/06/11 00:47:36;;;;;;;9.80;6.93;;;19.20;99.90;;;;;;5067849;28;20046;-81
2023/06/11 00:50:04;;;;;;;9.30;7.78;;;19.10;99.90;;;;;;5067628;28;20474;-81
2023/06/11 00:52:29;;;;;;;8.13;7.43;;;19.10;99.90;;;;;;5051172;28;20469;-82
2023/06/11 00:54:56;;;;;;;7.65;6.75;;;19.10;99.90;;;;;;5050494;28;20131;-81
2023/06/11 00:57:24;;;;;;;7.32;6.65;;;19.10;99.90;;;;;;5068083;28;20075;-81
2023/06/11 00:59:55;;;;;;;9.70;7.55;;;19.10;99.90;;;;;;5067072;28;20050;-81
2023/06/11 01:02:36;;;;;;;8.25;7.45;;;19.30;99.90;;;;;;5068732;28;20076;-81
2023/06/11 01:05:04;;;;;;;9.98;7.47;;;19.10;99.90;;;;;;5067329;28;20621;-81
2023/06/11 01:07:35;;;;;;;8.63;6.90;;;19.10;99.90;;;;;;5067917;28;20052;-81
2023/06/11 01:10:02;;;;;;;9.38;7.22;;;19.00;99.90;;;;;;5067101;28;20047;-83
2023/06/11 01:12:28;;;;;;;8.52;7.72;;;19.00;99.90;;;;;;5067644;28;20408;-81
2023/06/11 01:14:53;;;;;;;8.13;7.43;;;19.00;99.90;;;;;;5066887;28;20044;-81
2023/06/11 01:17:40;;;;;;;13.77;7.32;;;19.00;99.90;;;;;;5066923;28;20037;-81
2023/06/11 01:20:25;;;;;;;8.05;7.35;;;19.00;99.90;;;;;;5050125;28;20553;-82
2023/06/11 01:23:09;;;;;;;9.60;7.50;;;19.20;99.90;;;;;;5067026;28;20063;-81
2023/06/11 01:26:07;;;;;;;7.95;7.18;;;19.00;99.90;;;;;;5050934;28;20645;-81
2023/06/11 01:28:35;;;;;;;8.00;7.20;;;19.00;99.90;;;;;;5067051;28;20083;-81
2023/06/11 01:31:08;;;;;;;8.55;7.75;;;19.30;99.90;;;;;;5067920;28;20057;-81
2023/06/11 01:33:35;;;;;;;7.72;7.13;;;18.90;99.90;;;;;;5068254;28;20052;-82
2023/06/11 01:36:01;;;;;;;8.75;7.70;;;18.90;99.90;;;;;;5067880;28;20040;-81
2023/06/11 01:38:30;;;;;;;7.93;7.15;;;18.80;99.90;;;;;;5066885;28;20063;-82
2023/06/11 01:40:58;;;;;;;8.02;7.43;;;19.00;99.90;;;;;;5067889;28;20046;-83
2023/06/11 01:43:25;;;;;;;10.70;7.22;;;18.90;99.90;;;;;;5049766;28;20048;-81
2023/06/11 01:45:51;;;;;;;8.07;7.28;;;18.90;99.90;;;;;;5066578;28;20044;-80
2023/06/11 01:48:17;;;;;;;9.30;8.15;;;18.80;99.90;;;;;;5066921;28;20051;-81
2023/06/11 01:50:43;;;;;;;9.27;8.00;;;18.80;99.90;;;;;;5066412;28;20048;-81
2023/06/11 01:53:10;;;;;;;8.48;7.60;;;18.80;99.90;;;;;;5049372;28;20052;-81
2023/06/11 01:55:36;;;;;;;8.13;7.32;;;18.90;99.90;;;;;;5066629;28;20051;-81
2023/06/11 01:58:02;;;;;;;8.68;7.28;;;18.80;99.90;;;;;;5067214;28;20040;-81
2023/06/11 02:00:28;;;;;;;8.48;7.43;;;18.70;99.90;;;;;;5067798;28;20045;-81
2023/06/11 02:02:54;;;;;;;8.52;7.43;;;18.70;99.90;;;;;;5050107;28;20127;-81
2023/06/11 02:05:19;;;;;;;8.75;7.95;;;18.60;99.90;;;;;;5065652;28;20609;-81
2023/06/11 02:07:45;;;;;;;7.90;7.18;;;18.80;99.90;;;;;;5067800;28;20045;-81
2023/06/11 02:10:11;;;;;;;8.00;7.30;;;18.60;99.90;;;;;;5066463;28;20488;-81
2023/06/11 02:12:37;;;;;;;8.15;7.45;;;18.60;99.90;;;;;;5066255;28;20048;-81
2023/06/11 02:15:04;;;;;;;8.82;7.93;;;18.60;99.90;;;;;;5065717;28;20045;-81
2023/06/11 02:17:30;;;;;;;8.23;7.40;;;18.50;99.90;;;;;;5050659;28;20052;-81
2023/06/11 02:19:56;;;;;;;8.52;7.82;;;18.40;99.90;;;;;;5065838;28;20063;-81
2023/06/11 02:22:21;;;;;;;11.68;7.95;;;18.70;99.90;;;;;;5066255;28;20044;-80
2023/06/11 02:24:47;;;;;;;8.38;7.57;;;18.40;99.90;;;;;;5049248;28;20052;-81
2023/06/11 02:27:12;;;;;;;8.95;8.15;;;18.50;99.90;;;;;;5065830;28;20040;-82
2023/06/11 02:29:38;;;;;;;9.20;8.35;;;18.40;99.90;;;;;;5067209;28;20041;-82
2023/06/11 02:32:05;;;;;;;9.38;8.40;;;18.30;99.90;;;;;;5066325;28;20052;-82
2023/06/11 02:34:31;;;;;;;9.13;8.27;;;18.30;99.90;;;;;;5068728;28;20045;-82
2023/06/11 02:36:57;;;;;;;9.23;8.43;;;18.30;99.90;;;;;;5053478;28;20164;-81
2023/06/11 02:39:22;;;;;;;9.23;8.48;;;18.20;99.90;;;;;;5070563;28;20045;-81
2023/06/11 02:41:48;;;;;;;9.88;8.40;;;18.20;99.90;;;;;;5070309;28;20043;-81
2023/06/11 02:44:13;;;;;;;9.63;8.73;;;18.10;99.90;;;;;;5070257;28;20078;-81
2023/06/11 02:46:39;;;;;;;9.73;8.93;;;18.10;99.90;;;;;;5053224;28;20055;-80
2023/06/11 02:49:05;;;;;;;10.32;8.68;;;18.10;99.90;;;;;;5070654;28;20136;-80
2023/06/11 02:51:30;;;;;;;10.32;9.13;;;18.10;99.90;;;;;;5069681;28;20108;-82
2023/06/11 02:53:56;;;;;;;8.68;7.88;;;18.10;99.90;;;;;;5069932;28;20453;-81
2023/06/11 02:56:22;;;;;;;10.75;8.25;;;18.00;99.90;;;;;;5069708;28;20055;-80
2023/06/11 02:58:48;;;;;;;9.50;8.60;;;18.20;99.90;;;;;;5069497;28;20123;-80
2023/06/11 03:01:14;;;;;;;9.15;8.30;;;18.00;99.90;;;;;;5069395;28;20075;-81
2023/06/11 03:03:40;;;;;;;9.13;8.32;;;18.00;99.90;;;;;;5069916;28;20465;-81
2023/06/11 03:06:05;;;;;;;13.77;9.30;;;18.00;99.90;;;;;;5069159;28;20496;-81
2023/06/11 03:08:31;;;;;;;9.50;8.60;;;17.90;99.90;;;;;;5069490;28;20051;-81
2023/06/11 03:10:57;;;;;;;10.07;9.07;;;17.90;99.90;;;;;;5069255;28;20113;-81
2023/06/11 03:13:23;;;;;;;14.40;8.52;;;17.90;99.90;;;;;;5069733;28;20048;-81
2023/06/11 03:15:48;;;;;;;10.02;9.02;;;17.80;99.90;;;;;;5052088;28;20109;-81
2023/06/11 03:18:15;;;;;;;9.63;8.57;;;17.80;99.90;;;;;;5069581;28;20552;-81
2023/06/11 03:20:40;;;;;;;9.60;8.40;;;17.80;99.90;;;;;;5069060;28;20218;-80
2023/06/11 03:23:07;;;;;;;9.88;8.77;;;17.70;99.90;;;;;;5069238;28;20458;-81
2023/06/11 03:25:32;;;;;;;10.70;9.50;;;17.70;99.90;;;;;;5069133;28;20052;-81
2023/06/11 03:27:58;;;;;;;10.35;9.35;;;17.60;99.90;;;;;;5068603;28;20040;-81
2023/06/11 03:30:23;;;;;;;9.57;8.63;;;17.60;99.90;;;;;;5068782;28;20056;-82
2023/06/11 03:32:49;;;;;;;11.73;8.82;;;17.80;99.90;;;;;;5069343;28;20060;-81
2023/06/11 03:35:15;;;;;;;9.73;8.80;;;17.80;99.90;;;;;;5068281;28;20457;-81
2023/06/11 03:37:41;;;;;;;8.65;7.95;;;17.50;99.90;;;;;;5069107;28;20060;-81
2023/06/11 03:40:07;;;;;;;9.85;9.05;;;17.50;99.90;;;;;;5068269;28;20397;-81
2023/06/11 03:42:33;;;;;;;9.60;8.80;;;17.50;99.90;;;;;;5068773;28;20500;-81
2023/06/11 03:44:59;;;;;;;10.32;9.32;;;17.50;99.90;;;;;;5051636;28;20075;-81
2023/06/11 03:47:24;;;;;;;11.05;9.52;;;17.50;99.90;;;;;;5069139;28;20056;-81
2023/06/11 03:49:51;;;;;;;10.27;9.38;;;17.50;99.90;;;;;;5067859;28;20045;-81
2023/06/11 03:52:17;;;;;;;10.45;9.60;;;17.60;99.90;;;;;;5069016;28;20121;-81
2023/06/11 03:54:42;;;;;;;10.57;9.48;;;17.50;99.90;;;;;;5068949;28;20052;-81
2023/06/11 03:57:08;;;;;;;10.43;9.43;;;17.50;99.90;;;;;;5068639;28;20040;-81
2023/06/11 03:59:34;;;;;;;11.88;9.40;;;17.50;99.90;;;;;;5068756;28;20040;-81
2023/06/11 04:02:00;;;;;;;10.45;9.52;;;17.50;99.90;;;;;;5069804;28;20044;-80
2023/06/11 04:04:26;;;;;;;10.98;9.85;;;17.50;99.90;;;;;;5068531;28;20059;-82
2023/06/11 04:06:51;;;;;;;10.73;9.73;;;17.50;99.90;;;;;;5069038;28;20492;-81
2023/06/11 04:09:17;;;;;;;10.60;9.55;;;17.50;99.90;;;;;;5069977;28;20484;-81
2023/06/11 04:11:43;;;;;;;13.05;9.85;;;17.50;99.90;;;;;;5068381;28;20052;-81
2023/06/11 04:14:08;;;;;;;11.00;10.00;;;17.50;99.90;;;;;;5068149;28;20064;-81
2023/06/11 04:16:34;;;;;;;11.50;10.38;;;17.60;99.90;;;;;;5068410;28;20056;-80
2023/06/11 04:18:59;;;;;;;10.50;9.13;;;17.60;99.90;;;;;;5067815;28;20630;-80
2023/06/11 04:21:25;;;;;;;10.95;9.82;;;17.50;99.90;;;;;;5067768;28;20040;-80
2023/06/11 04:23:51;;;;;;;11.23;10.23;;;17.90;99.90;;;;;;5051393;28;20071;-81
2023/06/11 04:26:19;;;;;;;13.48;10.43;;;17.60;99.90;;;;;;5069910;28;20062;-80
2023/06/11 04:28:45;;;;;;;10.30;9.30;;;17.60;99.90;;;;;;5068116;28;20052;-82
2023/06/11 04:31:14;;;;;;;12.20;10.23;;;17.60;99.90;;;;;;5069130;28;20210;-81
2023/06/11 04:33:40;;;;;;;10.93;9.98;;;17.70;99.90;;;;;;5067784;28;20266;-81
2023/06/11 04:36:07;;;;;;;10.95;9.85;;;18.10;99.90;;;;;;5067173;28;20045;-80
2023/06/11 04:38:37;;;;;;;10.82;9.80;;;17.80;99.90;;;;;;5067994;28;20044;-81
2023/06/11 04:41:06;;;;;;;11.05;10.05;;;17.80;99.90;;;;;;5050751;28;20670;-81
2023/06/11 04:43:36;;;;;;;11.93;10.73;;;17.90;99.90;;;;;;5068258;28;20054;-81
2023/06/11 04:46:06;;;;;;;12.65;10.75;;;17.90;99.90;;;;;;5051043;28;20045;-81
2023/06/11 04:48:32;;;;;;;11.68;10.68;;;17.90;99.90;;;;;;5069204;28;20105;-80
2023/06/11 04:51:00;;;;;;;11.10;10.15;;;18.30;99.90;;;;;;5066876;28;20052;-81
2023/06/11 04:53:29;;;;;;;11.43;10.43;;;18.00;99.90;;;;;;5067531;28;20076;-81
2023/06/11 04:55:57;;;;;;;11.80;10.60;;;18.10;99.90;;;;;;5067288;28;20053;-81
2023/06/11 04:58:24;;;;;;;12.45;10.63;;;18.10;99.90;;;;;;5066573;28;20064;-82
2023/06/11 05:00:56;;;;;;;12.52;10.80;;;18.20;99.90;;;;;;5067419;28;20580;-82
2023/06/11 05:03:21;;;;;;;11.38;10.48;;;18.20;99.90;;;;;;5050581;28;20416;-81
2023/06/11 05:05:51;;;;;;;12.23;10.93;;;18.30;99.90;;;;;;5066790;28;20040;-81
2023/06/11 05:08:18;;;;;;;12.40;11.02;;;18.30;99.90;;;;;;5050951;28;20099;-82
2023/06/11 05:10:44;;;;;;;11.40;10.40;;;18.40;99.90;;;;;;5067262;28;20389;-82
2023/06/11 05:13:13;;;;;;;18.00;11.48;;;18.50;99.90;;;;;;5067481;28;20044;-81
2023/06/11 05:15:39;;;;;;;11.20;10.20;;;18.70;99.90;;;;;;5051242;28;20496;-82
2023/06/11 05:18:05;;;;;;;11.70;10.50;;;18.60;99.90;;;;;;5068084;28;20449;-82
2023/06/11 05:20:31;;;;;;;12.88;11.55;;;18.70;99.90;;;;;;5068124;28;20095;-80
2023/06/11 05:22:59;;;;;;;12.10;11.07;;;18.70;99.90;;;;;;5068017;28;20044;-81
2023/06/11 05:25:28;;;;;;;12.38;11.23;;;18.90;99.90;;;;;;5050366;28;20376;-81
2023/06/11 05:27:57;;;;;;;11.05;10.05;;;19.10;99.90;;;;;;5067496;28;20191;-81
2023/06/11 05:30:25;;;;;;;12.02;11.00;;;19.10;99.90;;;;;;5067415;28;20419;-81
2023/06/11 05:32:51;;;;;;;11.60;10.50;;;20.30;99.90;;;;;;5049872;28;20113;-81
2023/06/11 05:35:17;;;;;;;11.70;10.70;;;21.40;99.90;;;;;;5066406;28;20052;-81
2023/06/11 05:37:43;;;;;;;10.65;9.70;;;22.30;99.90;;;;;;5066933;28;20048;-81
2023/06/11 05:40:11;;;;;;;10.48;9.57;;;23.10;97.80;;;;;;5066700;28;20049;-82
2023/06/11 05:42:37;;;;;;;11.05;10.15;;;23.70;95.30;;;;;;5066719;28;20178;-82
2023/06/11 05:45:04;;;;;;;10.27;9.18;;;24.20;93.50;;;;;;5067935;28;20523;-82
2023/06/11 05:47:34;;;;;;;10.57;9.68;;;24.30;92.10;;;;;;5066363;28;20040;-83
2023/06/11 05:50:00;;;;;;;10.48;9.57;;;24.50;90.90;;;;;;5066288;28;20041;-82
2023/06/11 05:52:26;;;;;;;9.90;9.05;;;24.70;90.00;;;;;;5066704;28;20061;-81
2023/06/11 05:54:52;;;;;;;9.80;8.90;;;25.20;87.70;;;;;;5066188;28;20048;-82
2023/06/11 05:57:22;;;;;;;10.10;9.18;;;25.40;85.60;;;;;;5066676;28;20167;-82
2023/06/11 05:59:49;;;;;;;9.27;8.45;;;25.70;83.00;;;;;;5066356;28;20048;-82
2023/06/11 06:02:15;;;;;;;9.90;8.98;;;25.80;81.80;;;;;;5066949;28;20410;-83
2023/06/11 06:04:41;;;;;;;9.55;8.65;;;26.00;80.30;;;;;;5065922;28;20044;-82
2023/06/11 06:07:06;;;;;;;9.48;8.68;;;26.10;79.20;;;;;;5049770;28;20044;-82
2023/06/11 06:09:33;;;;;;;9.60;8.77;;;26.10;78.00;;;;;;5066005;28;20040;-82
2023/06/11 06:11:59;;;;;;;9.25;8.35;;;26.30;77.10;;;;;;5066103;28;20583;-82
2023/06/11 06:14:25;;;;;;;9.82;9.00;;;26.50;76.00;;;;;;5066447;28;20551;-81
2023/06/11 06:16:51;;;;;;;9.85;8.90;;;26.70;75.20;;;;;;5048991;28;20127;-80
2023/06/11 06:19:16;;;;;;;9.85;9.00;;;27.10;74.50;;;;;;5066140;28;20044;-81
2023/06/11 06:21:42;;;;;;;9.68;8.90;;;27.20;72.40;;;;;;5066650;28;20055;-80
2023/06/11 06:24:08;;;;;;;10.40;8.77;;;27.30;71.40;;;;;;5066090;28;20033;-80
2023/06/11 06:26:33;;;;;;;9.23;8.40;;;27.00;70.80;;;;;;5066289;28;20053;-82
2023/06/11 06:29:02;;;;;;;12.25;8.77;;;27.00;70.80;;;;;;5049486;28;20040;-82
2023/06/11 06:31:28;;;;;;;9.02;8.20;;;27.00;70.30;;;;;;5065508;28;20052;-81
2023/06/11 06:33:53;;;;;;;8.95;8.25;;;27.10;70.20;;;;;;5066121;28;20502;-82
2023/06/11 06:36:20;;;;;;;9.77;8.98;;;27.10;69.50;;;;;;5049290;28;20040;-81
2023/06/11 06:38:46;;;;;;;9.63;8.73;;;27.00;69.10;;;;;;5048939;28;20036;-80
2023/06/11 06:41:12;;;;;;;9.70;8.90;;;26.50;70.00;;;;;;5049652;28;20037;-81
2023/06/11 06:43:37;;;;;;;9.30;8.50;;;25.70;71.70;;;;;;5066187;28;20051;-82
2023/06/11 06:46:03;;;;;;;9.40;8.50;;;25.40;73.50;;;;;;5065685;28;20053;-81
2023/06/11 06:48:29;;;;;;;9.77;8.85;;;25.20;75.00;;;;;;5066219;28;20361;-81
2023/06/11 06:50:54;;;;;;;9.25;8.50;;;24.80;75.60;;;;;;5065014;28;20044;-81
2023/06/11 06:53:20;;;;;;;9.65;8.75;;;24.70;77.10;;;;;;5066045;28;20101;-81
2023/06/11 06:55:47;;;;;;;9.10;8.30;;;24.40;77.10;;;;;;5066767;28;20049;-80
2023/06/11 06:58:12;;;;;;;9.27;8.43;;;24.30;77.00;;;;;;5066427;28;20045;-80
2023/06/11 07:00:38;;;;;;;9.10;8.30;;;24.10;77.20;;;;;;5065572;28;20051;-81
2023/06/11 07:03:04;;;;;;;9.45;8.18;;;24.00;77.90;;;;;;5066108;28;20053;-81
2023/06/11 07:05:30;;;;;;;8.70;8.00;;;24.10;79.10;;;;;;5066742;28;20052;-81
2023/06/11 07:07:56;;;;;;;9.10;8.25;;;24.30;78.70;;;;;;5066029;28;20538;-81
2023/06/11 07:10:21;;;;;;;9.55;8.75;;;24.30;77.90;;;;;;5067160;28;20052;-81
2023/06/11 07:12:48;;;;;;;9.73;8.80;;;24.50;77.70;;;;;;5066071;28;20127;-81
2023/06/11 07:15:13;;;;;;;8.70;7.88;;;24.50;77.60;;;;;;5066576;28;20060;-82
2023/06/11 07:17:39;;;;;;;9.45;8.65;;;24.60;77.30;;;;;;5066236;28;20033;-82
2023/06/11 07:20:07;;;;;;;14.95;9.02;;;24.60;77.00;;;;;;5065350;28;20089;-81
2023/06/11 07:22:32;;;;;;;9.30;8.43;;;24.60;76.80;;;;;;5069159;28;20044;-81
2023/06/11 07:25:00;;;;;;;8.93;8.23;;;24.50;76.70;;;;;;5068827;28;20086;-82
2023/06/11 07:27:26;;;;;;;9.93;9.00;;;24.90;76.20;;;;;;5070096;28;20411;-82
2023/06/11 07:29:52;;;;;;;9.55;8.65;;;24.80;75.70;;;;;;5069114;28;20041;-81
2023/06/11 07:32:17;;;;;;;9.60;8.60;;;25.10;76.30;;;;;;5069264;28;20056;-81
2023/06/11 07:34:43;;;;;;;9.45;8.48;;;25.00;76.50;;;;;;5070164;28;20100;-83
2023/06/11 07:37:09;;;;;;;8.27;7.57;;;25.10;75.50;;;;;;5052627;28;20055;-82
2023/06/11 07:39:34;;;;;;;10.40;8.70;;;25.30;75.50;;;;;;5070478;28;20507;-81
2023/06/11 07:42:00;;;;;;;9.15;8.13;;;25.30;75.30;;;;;;5068822;28;20040;-81
2023/06/11 07:44:26;;;;;;;8.93;8.20;;;25.30;76.00;;;;;;5070154;28;20135;-82
2023/06/11 07:46:52;;;;;;;9.82;8.93;;;25.40;75.60;;;;;;5070160;28;20043;-81
2023/06/11 07:49:17;;;;;;;8.82;7.72;;;25.50;74.80;;;;;;5069635;28;20119;-81
2023/06/11 07:51:45;;;;;;;10.07;8.90;;;25.70;74.90;;;;;;5070295;28;20052;-81
2023/06/11 07:54:11;;;;;;;9.25;8.40;;;25.70;74.80;;;;;;5069233;28;20051;-81
2023/06/11 07:56:37;;;;;;;9.20;8.40;;;25.70;74.40;;;;;;5068735;28;20054;-81
2023/06/11 07:59:03;;;;;;;8.32;7.57;;;25.80;74.10;;;;;;5068427;28;20155;-82
2023/06/11 08:01:28;;;;;;;8.85;8.10;;;26.10;74.50;;;;;;5068746;28;20112;-81
2023/06/11 08:03:54;;;;;;;8.55;7.75;;;26.10;73.70;;;;;;5051955;28;20116;-80
2023/06/11 08:06:20;;;;;;;8.50;7.80;;;26.30;73.00;;;;;;5068782;28;20056;-81
2023/06/11 08:08:47;;;;;;;8.90;8.13;;;25.80;72.90;;;;;;5068676;28;20060;-80
2023/06/11 08:11:13;;;;;;;9.00;8.05;;;26.20;73.10;;;;;;5069935;28;20571;-81
2023/06/11 08:13:40;;;;;;;9.07;8.25;;;26.40;73.00;;;;;;5068499;28;20136;-82
2023/06/11 08:16:07;;;;;;;8.85;8.07;;;26.50;73.00;;;;;;5067925;28;20143;-81
2023/06/11 08:18:33;;;;;;;9.27;8.38;;;26.70;72.90;;;;;;5052630;28;20055;-81
2023/06/11 08:21:03;;;;;;;8.70;7.90;;;26.80;72.20;;;;;;5068307;28;20075;-81
2023/06/11 08:23:28;;;;;;;13.40;8.23;;;26.80;71.40;;;;;;5068271;28;20417;-81
2023/06/11 08:25:58;;;;;;;8.98;7.63;;;27.10;71.20;;;;;;5067834;28;20350;-82
2023/06/11 08:28:26;;;;;;;9.10;8.32;;;27.10;70.90;;;;;;5051392;28;20083;-81
2023/06/11 08:30:52;;;;;;;8.88;8.00;;;27.10;70.30;;;;;;5068007;28;20056;-82
2023/06/11 08:33:18;;;;;;;10.02;7.78;;;27.10;70.10;;;;;;5067959;28;20365;-82
2023/06/11 08:35:43;;;;;;;8.88;8.07;;;27.20;70.40;;;;;;5067717;28;20048;-82
2023/06/11 08:38:11;;;;;;;10.68;8.20;;;27.20;69.80;;;;;;5069272;28;20052;-82
2023/06/11 08:40:40;;;;;;;8.38;7.63;;;27.20;70.10;;;;;;5067614;28;20476;-81
2023/06/11 08:43:10;;;;;;;8.25;7.55;;;27.30;69.60;;;;;;5067675;28;20147;-80
2023/06/11 08:45:36;;;;;;;8.02;7.22;;;27.50;70.70;;;;;;5069090;28;20112;-82
2023/06/11 08:48:04;;;;;;;8.85;8.10;;;27.70;69.50;;;;;;5068168;28;20049;-80
2023/06/11 08:50:33;;;;;;;8.05;7.45;;;27.60;68.50;;;;;;5067278;28;20042;-82
2023/06/11 08:53:02;;;;;;;8.45;7.65;;;27.60;68.20;;;;;;5069379;28;20068;-80
2023/06/11 08:55:30;;;;;;;9.98;7.40;;;27.70;68.90;;;;;;5067169;28;20534;-81
2023/06/11 08:57:56;;;;;;;8.15;7.40;;;27.70;67.90;;;;;;5067990;28;20122;-81
2023/06/11 09:00:22;;;;;;;8.55;7.85;;;27.70;67.50;;;;;;5070250;28;20419;-82
2023/06/11 09:02:50;;;;;;;8.15;7.35;;;28.00;66.80;;;;;;5069237;28;20119;-81
2023/06/11 09:05:16;;;;;;;8.35;7.50;;;28.10;66.40;;;;;;5067673;28;20534;-81
2023/06/11 09:07:52;;;;;;;7.90;7.13;;;28.00;66.10;;;;;;5069245;28;20075;-82
2023/06/11 09:10:18;;;;;;;7.93;7.30;;;28.20;65.10;;;;;;5068208;28;20488;-81
2023/06/11 09:12:44;;;;;;;8.15;7.45;;;28.10;66.10;;;;;;5050712;28;20047;-81
2023/06/11 09:15:12;;;;;;;10.07;6.65;;;28.30;66.20;;;;;;5068501;28;20048;-81
2023/06/11 09:17:40;;;;;;;7.68;6.90;;;28.40;66.10;;;;;;5068774;28;20098;-81
2023/06/11 09:20:11;;;;;;;7.10;6.60;;;28.50;65.50;;;;;;5050993;28;20097;-82
2023/06/11 09:22:40;;;;;;;7.22;6.53;;;28.50;64.40;;;;;;5068845;28;20155;-81
2023/06/11 09:25:16;;;;;;;7.35;6.75;;;28.50;65.60;;;;;;5050268;28;20049;-83
2023/06/11 09:27:43;;;;;;;7.90;6.43;;;28.60;65.10;;;;;;5067819;28;20052;-81
2023/06/11 09:30:17;;;;;;;7.28;6.57;;;28.80;64.10;;;;;;5066909;28;20060;-82
2023/06/11 09:32:45;;;;;;;7.25;6.60;;;28.80;65.30;;;;;;5051555;28;20147;-82
2023/06/11 09:35:13;;;;;;;7.72;7.03;;;28.90;64.00;;;;;;5068478;28;20049;-81
2023/06/11 09:37:50;;;;;;;7.72;6.72;;;28.90;63.00;;;;;;5068160;28;20110;-81
2023/06/11 09:40:18;;;;;;;7.63;7.03;;;29.00;63.50;;;;;;5068788;28;20050;-80
2023/06/11 09:42:45;;;;;;;6.97;6.28;;;29.00;62.80;;;;;;5069393;28;20049;-81
2023/06/11 09:45:16;;;;;;;7.30;6.78;;;29.00;62.20;;;;;;5069901;28;20480;-81
2023/06/11 09:47:45;;;;;;;7.35;6.65;;;28.90;61.30;;;;;;5068291;28;20048;-82
2023/06/11 09:50:18;;;;;;;6.93;6.38;;;29.00;61.50;;;;;;5068988;28;20037;-82
2023/06/11 09:52:45;;;;;;;7.05;6.53;;;29.00;61.20;;;;;;5068342;28;20106;-82
2023/06/11 09:55:12;;;;;;;7.97;6.68;;;29.00;61.20;;;;;;5068082;28;20048;-82
2023/06/11 09:57:38;;;;;;;7.38;6.68;;;29.20;61.60;;;;;;5066937;28;20040;-82
2023/06/11 10:00:10;;;;;;;7.32;6.63;;;29.30;61.40;;;;;;5068236;28;20105;-82
2023/06/11 10:02:40;;;;;;;6.95;6.32;;;29.30;61.40;;;;;;5066798;28;20050;-83
2023/06/11 10:05:08;;;;;;;7.63;6.75;;;29.40;61.90;;;;;;5066350;28;20090;-82
2023/06/11 10:07:47;;;;;;;6.72;6.13;;;29.50;60.90;;;;;;5066549;28;20044;-82
2023/06/11 10:10:17;;;;;;;6.90;6.40;;;29.80;61.30;;;;;;5065739;28;20403;-82
2023/06/11 10:12:48;;;;;;;7.25;6.65;;;29.80;60.40;;;;;;5069016;28;20448;-82
2023/06/11 10:15:16;;;;;;;7.35;6.65;;;29.80;59.90;;;;;;5066891;28;20109;-82
2023/06/11 10:17:49;;;;;;;7.05;6.32;;;29.90;60.40;;;;;;5066477;28;20606;-81
2023/06/11 10:20:31;;;;;;;6.57;5.97;;;30.00;59.30;;;;;;5067823;28;20051;-81
2023/06/11 10:23:09;;;;;;;6.85;6.00;;;30.00;56.70;;;;;;5070169;28;20068;-82
2023/06/11 10:25:37;;;;;;;7.00;6.38;;;30.00;58.40;;;;;;5071614;28;20499;-81
2023/06/11 10:28:03;;;;;;;6.20;5.70;;;29.90;57.70;;;;;;5067204;28;20052;-82
2023/06/11 10:30:29;;;;;;;7.00;6.10;;;29.90;57.30;;;;;;5066106;28;20059;-81
2023/06/11 10:32:58;;;;;;;6.45;5.85;;;30.00;57.30;;;;;;5066668;28;20084;-81
2023/06/11 10:35:32;;;;;;;6.40;5.80;;;30.00;57.00;;;;;;5066575;28;20089;-82
2023/06/11 10:38:03;;;;;;;6.25;5.65;;;30.00;56.20;;;;;;5069331;28;20045;-81
2023/06/11 10:40:33;;;;;;;;;;;30.20;57.00;;;;;;5068507;28;20284;-81
2023/06/11 10:42:59;;;;;;;5.57;5.15;;;30.30;55.50;;;;;;5066922;28;19928;-82
2023/06/11 10:45:38;;;;;;;5.95;5.45;;;30.30;56.30;;;;;;5067466;28;20037;-82
2023/06/11 10:48:04;;;;;;;6.00;5.50;;;30.40;54.40;;;;;;5067353;28;20068;-81
2023/06/11 10:50:31;;;;;;;6.05;5.45;;;30.50;55.00;;;;;;5067942;28;20505;-82
2023/06/11 10:53:10;;;;;;;5.88;5.40;;;30.60;54.60;;;;;;5050533;28;20442;-81
2023/06/11 10:55:42;;;;;;;7.32;5.55;;;30.60;51.70;;;;;;5067815;28;20127;-81
2023/06/11 10:58:08;;;;;;;5.80;5.30;;;30.80;52.70;;;;;;5073725;28;20047;-82
2023/06/11 11:00:36;;;;;;;5.57;5.15;;;30.80;52.00;;;;;;5074087;28;20044;-82
2023/06/11 11:03:04;;;;;;;5.80;5.20;;;30.80;51.30;;;;;;5071775;28;20044;-80
2023/06/11 11:05:30;;;;;;;5.40;4.97;;;30.80;51.40;;;;;;5052970;28;20040;-81
2023/06/11 11:07:59;;;;;;;6.10;5.53;;;30.70;51.60;;;;;;5053149;28;20044;-81
2023/06/11 11:10:26;;;;;;;7.72;5.28;;;30.80;51.40;;;;;;5071710;28;20040;-81
2023/06/11 11:12:53;;;;;;;6.30;5.70;;;30.80;50.90;;;;;;5056870;28;20060;-83
2023/06/11 11:15:19;;;;;;;5.80;5.07;;;30.90;50.20;;;;;;5073143;28;20098;-80
2023/06/11 11:17:45;;;;;;;5.55;5.15;;;30.90;50.60;;;;;;5074522;28;20216;-82
2023/06/11 11:20:19;;;;;;;7.35;5.28;;;30.60;49.70;;;;;;5069782;28;20060;-82
2023/06/11 11:22:54;;;;;;;6.13;5.20;;;30.90;50.30;;;;;;5072477;28;20056;-81
2023/06/11 11:25:22;;;;;;;5.72;5.25;;;30.90;50.20;;;;;;5071654;28;20045;-82
2023/06/11 11:27:48;;;;;;;6.10;5.28;;;30.80;50.00;;;;;;5070261;28;20071;-81
2023/06/11 11:30:15;;;;;;;6.00;5.40;;;31.10;49.50;;;;;;5070303;28;20056;-82
2023/06/11 11:32:41;;;;;;;5.95;5.38;;;31.10;49.70;;;;;;5071999;28;20052;-81
2023/06/11 11:35:07;;;;;;;5.68;5.15;;;31.10;49.60;;;;;;5071988;28;20044;-81
2023/06/11 11:37:33;;;;;;;5.80;5.15;;;31.10;49.80;;;;;;5068866;28;20051;-81
2023/06/11 11:40:08;;;;;;;5.97;5.32;;;31.20;49.60;;;;;;5068857;28;20033;-82
2023/06/11 11:42:57;;;;;;;6.03;5.38;;;31.40;48.80;;;;;;5070608;28;20037;-81
2023/06/11 11:45:30;;;;;;;5.57;5.10;;;31.50;48.00;;;;;;5069502;28;20181;-81
2023/06/11 11:47:56;;;;;;;5.75;5.28;;;31.40;47.00;;;;;;5070893;28;20040;-82
2023/06/11 11:50:25;;;;;;;5.97;5.22;;;31.40;47.90;;;;;;5069370;28;20041;-82
2023/06/11 11:53:04;;;;;;;5.65;4.95;;;31.40;47.50;;;;;;5070182;28;20055;-82
2023/06/11 11:55:32;;;;;;;6.55;5.95;;;31.40;46.70;;;;;;5070995;28;20480;-81
2023/06/11 11:58:09;;;;;;;6.20;5.70;;;31.50;47.80;;;;;;5072165;28;20052;-82
2023/06/11 12:00:37;;;;;;;5.90;5.40;;;31.40;47.40;;;;;;5069240;28;20123;-81
2023/06/11 12:03:08;;;;;;;7.03;5.65;;;31.50;47.40;;;;;;5070952;28;20049;-82
2023/06/11 12:05:38;;;;;;;5.90;5.38;;;31.20;47.20;;;;;;5068262;28;20040;-81
2023/06/11 12:08:04;;;;;;;7.57;6.07;;;31.40;48.00;;;;;;5070535;28;20032;-82
2023/06/11 12:10:30;;;;;;;6.38;5.78;;;31.40;47.60;;;;;;5071320;28;20051;-82
2023/06/11 12:12:57;;;;;;;6.50;5.90;;;31.40;47.60;;;;;;5070342;28;20056;-82
2023/06/11 12:15:23;;;;;;;6.07;5.47;;;31.50;47.40;;;;;;5069593;28;20060;-82
2023/06/11 12:17:48;;;;;;;7.30;5.57;;;31.30;47.20;;;;;;5068653;28;20060;-81
2023/06/11 12:20:14;;;;;;;6.30;5.70;;;31.20;47.20;;;;;;5068594;28;20044;-82
2023/06/11 12:22:40;;;;;;;6.30;5.80;;;30.80;47.60;;;;;;5069254;28;20140;-83
2023/06/11 12:25:06;;;;;;;6.28;5.50;;;30.70;48.00;;;;;;5068022;28;20044;-82
2023/06/11 12:27:31;;;;;;;6.03;5.53;;;30.70;48.30;;;;;;5068211;28;20040;-81
2023/06/11 12:29:57;;;;;;;6.40;5.78;;;30.80;48.00;;;;;;5068748;28;20473;-81
2023/06/11 12:32:24;;;;;;;7.07;5.95;;;30.90;48.00;;;;;;5069723;28;20052;-81
2023/06/11 12:34:50;;;;;;;6.80;6.25;;;31.00;48.30;;;;;;5068036;28;20132;-82
2023/06/11 12:37:16;;;;;;;6.78;6.18;;;31.10;48.50;;;;;;5069193;28;20495;-82
2023/06/11 12:39:43;;;;;;;6.10;5.60;;;31.20;48.80;;;;;;5068132;28;20139;-82
2023/06/11 12:42:15;;;;;;;7.07;5.95;;;31.40;48.20;;;;;;5069184;28;20086;-82
2023/06/11 12:44:45;;;;;;;7.55;6.13;;;31.40;46.90;;;;;;5067992;28;20041;-82